Terminal Aerodrome Forecast
Issued by NWS

Home | Current Version | Previous Version | Graphics & Text | Print | Product List | Glossary On
Versions: 1 2 3 4 5 6 7 8 9 10 11 12 13 14 15
000
FTUS43 KEAX 250500
TAFMKC
TAF
KMKC 250528Z 2506/2606 24090KT P6SM -SHRA OVC050
     FM250800 29012G20KT P6SM BKN050
     FM251300 33018G28KT P6SM VCSH OVC018
     FM252000 35015G23KT P6SM BKN030
     FM260000 35008KT P6SM SCT040=

USA.gov is the U.S. government's official web portal to all federal, state and local government web resources and services.